Time;durP1;ratioP1;P1;durP2;ratioP2;P2;SDS_P1;SDS_P2;PMS_P1;PMS_P2;Temp;Humidity;BMP_temperature;BMP_pressure;BME280_temperature;BME280_humidity;BME280_pressure;Samples;Min_cycle;Max_cycle;Signal;HPM_P1;HPM_P2
2023/07/21 00:01:06;;;;;;;3.58;2.40;;;;;;;-143.49;100.00;65027.28;5097677;28;20024;-70
2023/07/21 00:03:32;;;;;;;4.40;2.40;;;;;;;-143.49;100.00;65027.28;5097402;28;20026;-70
2023/07/21 00:06:06;;;;;;;6.25;2.58;;;;;;;-143.49;100.00;65027.28;5097444;28;20434;-70
2023/07/21 00:08:32;;;;;;;4.72;2.10;;;;;;;-143.49;100.00;65027.28;5096844;28;20040;-70
2023/07/21 00:10:58;;;;;;;5.15;2.40;;;;;;;-143.49;100.00;65027.28;5079016;28;20433;-70
2023/07/21 00:13:24;;;;;;;4.50;2.40;;;;;;;-143.49;100.00;65027.28;5097312;28;20035;-70
2023/07/21 00:15:49;;;;;;;6.60;2.20;;;;;;;-143.49;100.00;65027.28;5097401;28;20020;-70
2023/07/21 00:18:15;;;;;;;4.97;2.17;;;;;;;-143.49;100.00;65027.28;5097155;28;20107;-71
2023/07/21 00:20:41;;;;;;;7.65;2.20;;;;;;;-143.49;100.00;65027.28;5097165;28;20059;-70
2023/07/21 00:23:06;;;;;;;5.57;2.60;;;;;;;-143.49;100.00;65027.28;5079035;28;20059;-70
2023/07/21 00:25:31;;;;;;;5.07;2.30;;;;;;;-143.49;100.00;65027.28;5096848;28;20386;-70
2023/07/21 00:27:57;;;;;;;4.13;2.20;;;;;;;-143.49;100.00;65027.28;5096950;28;20332;-71
2023/07/21 00:30:22;;;;;;;8.60;2.42;;;;;;;-143.49;100.00;65027.28;5097177;28;20028;-70
2023/07/21 00:32:47;;;;;;;3.38;2.45;;;;;;;-143.49;100.00;65027.28;5096955;28;20103;-71
2023/07/21 00:35:13;;;;;;;5.78;2.50;;;;;;;-143.49;100.00;65027.28;5078833;28;20031;-70
2023/07/21 00:37:39;;;;;;;3.97;2.38;;;;;;;-143.49;100.00;65027.28;5078803;28;20028;-70
2023/07/21 00:40:19;;;;;;;4.85;2.50;;;;;;;-143.49;100.00;65027.28;5096915;28;20024;-70
2023/07/21 00:42:48;;;;;;;3.83;2.40;;;;;;;-143.49;100.00;65027.28;5096787;28;20475;-71
2023/07/21 00:45:14;;;;;;;4.95;2.53;;;;;;;-143.49;100.00;65027.28;5078286;28;20093;-70
2023/07/21 00:47:40;;;;;;;5.03;2.40;;;;;;;-143.49;100.00;65027.28;5096712;28;20019;-69
2023/07/21 00:50:06;;;;;;;4.15;2.40;;;;;;;-143.49;100.00;65027.28;5096621;28;20383;-69
2023/07/21 00:52:32;;;;;;;4.60;2.25;;;;;;;-143.49;100.00;65027.28;5096782;28;20024;-69
2023/07/21 00:54:57;;;;;;;6.70;2.60;;;;;;;-143.49;100.00;65027.28;5095741;28;20020;-70
2023/07/21 00:57:23;;;;;;;4.78;2.50;;;;;;;-143.49;100.00;65027.28;5096279;28;20089;-69
2023/07/21 00:59:49;;;;;;;4.30;2.58;;;;;;;-143.49;100.00;65027.28;5096125;28;20046;-70
2023/07/21 01:02:15;;;;;;;5.68;2.47;;;;;;;-143.49;100.00;65027.28;5078898;28;20492;-71
2023/07/21 01:04:40;;;;;;;5.07;2.47;;;;;;;-143.49;100.00;65027.28;5096508;28;20115;-70
2023/07/21 01:07:08;;;;;;;4.50;2.47;;;;;;;-143.49;100.00;65027.28;5096309;28;20056;-70
2023/07/21 01:09:35;;;;;;;4.05;2.63;;;;;;;-143.49;100.00;65027.28;5096049;28;20387;-70
2023/07/21 01:12:01;;;;;;;4.38;2.40;;;;;;;-143.49;100.00;65027.28;5096179;28;20058;-70
2023/07/21 01:14:29;;;;;;;6.55;2.40;;;;;;;-143.49;100.00;65027.28;5096279;28;20020;-69
2023/07/21 01:16:56;;;;;;;4.57;2.40;;;;;;;-143.49;100.00;65027.28;5096347;28;20424;-70
2023/07/21 01:19:22;;;;;;;3.92;2.30;;;;;;;-143.49;100.00;65027.28;5096314;28;20028;-70
2023/07/21 01:21:51;;;;;;;6.25;2.55;;;;;;;-143.49;100.00;65027.28;5096162;28;20052;-70
2023/07/21 01:24:45;;;;;;;4.00;2.72;;;;;;;-143.49;100.00;65027.28;5096076;28;20073;-69
2023/07/21 01:27:12;;;;;;;3.70;2.80;;;;;;;-143.49;100.00;65027.28;5077572;28;20024;-69
2023/07/21 01:29:41;;;;;;;6.50;3.00;;;;;;;-143.49;100.00;65027.28;5095916;28;20114;-70
2023/07/21 01:32:10;;;;;;;4.93;3.05;;;;;;;-143.49;100.00;65027.28;5096153;28;20028;-70
2023/07/21 01:34:37;;;;;;;5.40;2.88;;;;;;;-143.49;100.00;65027.28;5077654;28;20116;-70
2023/07/21 01:37:07;;;;;;;5.68;3.10;;;;;;;-143.49;100.00;65027.28;5077668;28;20052;-69
2023/07/21 01:39:35;;;;;;;4.65;3.10;;;;;;;-143.49;100.00;65027.28;5095482;28;20532;-70
2023/07/21 01:42:03;;;;;;;6.28;3.33;;;;;;;-143.49;100.00;65027.28;5095565;28;20020;-70
2023/07/21 01:44:29;;;;;;;5.32;3.65;;;;;;;-143.49;100.00;65027.28;5077302;28;20028;-70
2023/07/21 01:46:56;;;;;;;6.13;3.65;;;;;;;-143.49;100.00;65027.28;5095506;28;20080;-69
2023/07/21 01:49:22;;;;;;;9.20;3.72;;;;;;;-143.49;100.00;65027.28;5095468;28;20115;-70
2023/07/21 01:51:48;;;;;;;5.88;3.90;;;;;;;-143.49;100.00;65027.28;5077313;28;20115;-70
2023/07/21 01:54:21;;;;;;;6.35;4.10;;;;;;;-143.49;100.00;65027.28;5095337;28;20028;-70
2023/07/21 01:56:55;;;;;;;6.75;4.10;;;;;;;-143.49;100.00;65027.28;5095258;28;20024;-70
2023/07/21 01:59:22;;;;;;;5.18;3.92;;;;;;;-143.49;100.00;65027.28;5077039;28;20368;-70
2023/07/21 02:02:04;;;;;;;6.80;4.18;;;;;;;-143.49;100.00;65027.28;5095512;28;20072;-70
2023/07/21 02:04:29;;;;;;;5.80;3.87;;;;;;;-143.49;100.00;65027.28;5077027;28;20028;-70
2023/07/21 02:06:54;;;;;;;5.85;4.00;;;;;;;-143.49;100.00;65027.28;5075954;28;20073;-71
2023/07/21 02:09:20;;;;;;;8.43;3.90;;;;;;;-143.49;100.00;65027.28;5095078;28;20534;-70
2023/07/21 02:11:47;;;;;;;7.10;4.03;;;;;;;-143.49;100.00;65027.28;5095066;28;20031;-70
2023/07/21 02:14:12;;;;;;;5.05;3.60;;;;;;;-143.49;100.00;65027.28;5095040;28;20020;-70
2023/07/21 02:16:38;;;;;;;6.28;4.18;;;;;;;-143.49;100.00;65027.28;5095179;28;20358;-69
2023/07/21 02:19:06;;;;;;;5.47;4.15;;;;;;;-143.49;100.00;65027.28;5094733;28;20028;-70
2023/07/21 02:21:35;;;;;;;6.85;3.80;;;;;;;-143.49;100.00;65027.28;5094807;28;20032;-70
2023/07/21 02:24:00;;;;;;;6.28;3.83;;;;;;;-143.49;100.00;65027.28;5076549;28;20111;-69
2023/07/21 02:26:25;;;;;;;10.27;4.28;;;;;;;-143.49;100.00;65027.28;5076514;28;20455;-70
2023/07/21 02:28:51;;;;;;;5.82;4.10;;;;;;;-143.49;100.00;65027.28;5076397;28;20026;-69
2023/07/21 02:31:16;;;;;;;6.85;4.30;;;;;;;-143.49;100.00;65027.28;5094705;28;20012;-68
2023/07/21 02:33:42;;;;;;;6.72;3.90;;;;;;;-143.49;100.00;65027.28;5094550;28;20024;-71
2023/07/21 02:36:07;;;;;;;7.13;3.88;;;;;;;-143.49;100.00;65027.28;5094500;28;20020;-70
2023/07/21 02:38:33;;;;;;;7.95;3.45;;;;;;;-143.49;100.00;65027.28;5094417;28;20046;-70
2023/07/21 02:41:03;;;;;;;7.28;3.90;;;;;;;-143.49;100.00;65027.28;5076564;28;20119;-69
2023/07/21 02:43:29;;;;;;;4.60;3.40;;;;;;;-143.49;100.00;65027.28;5076363;28;20023;-69
2023/07/21 02:45:55;;;;;;;8.13;3.75;;;;;;;-143.49;100.00;65027.28;5076271;28;20531;-69
2023/07/21 02:48:21;;;;;;;7.50;3.80;;;;;;;-143.49;100.00;65027.28;5075995;28;20041;-69
2023/07/21 02:51:00;;;;;;;4.93;3.50;;;;;;;-143.49;100.00;65027.28;5094404;28;20028;-69
2023/07/21 02:53:31;;;;;;;4.10;3.10;;;;;;;-143.49;100.00;65027.28;5094246;28;20391;-69
2023/07/21 02:55:56;;;;;;;4.30;3.10;;;;;;;-143.49;100.00;65027.28;5094310;28;20016;-69
2023/07/21 02:58:26;;;;;;;5.13;3.20;;;;;;;-143.49;100.00;65027.28;5093809;28;20398;-70
2023/07/21 03:00:54;;;;;;;4.35;3.00;;;;;;;-143.49;100.00;65027.28;5094140;28;20020;-69
2023/07/21 03:03:25;;;;;;;3.90;2.78;;;;;;;-143.49;100.00;65027.28;5094309;28;20157;-69
2023/07/21 03:05:51;;;;;;;5.07;2.60;;;;;;;-143.49;100.00;65027.28;5093986;28;20020;-69
2023/07/21 03:08:26;;;;;;;3.30;2.55;;;;;;;-143.49;100.00;65027.28;5093892;28;20040;-69
2023/07/21 03:10:53;;;;;;;4.15;2.80;;;;;;;-143.49;100.00;65027.28;5076278;28;20076;-69
2023/07/21 03:16:03;;;;;;;4.35;2.90;;;;;;;-143.49;100.00;65027.28;5094028;28;20491;-69
2023/07/21 03:18:29;;;;;;;4.90;3.10;;;;;;;-143.49;100.00;65027.28;5093504;28;20032;-68
2023/07/21 03:20:58;;;;;;;4.05;2.85;;;;;;;-143.49;100.00;65027.28;5093779;28;20016;-70
2023/07/21 03:23:24;;;;;;;3.30;2.45;;;;;;;-143.49;100.00;65027.28;5093996;28;20111;-70
2023/07/21 03:25:49;;;;;;;4.18;2.75;;;;;;;-143.49;100.00;65027.28;5093767;28;20100;-70
2023/07/21 03:28:14;;;;;;;6.35;2.70;;;;;;;-143.49;100.00;65027.28;5093754;28;20024;-70
2023/07/21 03:30:41;;;;;;;4.78;2.70;;;;;;;-143.49;100.00;65027.28;5093735;28;20023;-70
2023/07/21 03:33:06;;;;;;;5.07;2.50;;;;;;;-143.49;100.00;65027.28;5093574;28;20026;-70
2023/07/21 03:35:32;;;;;;;4.07;2.63;;;;;;;-143.49;100.00;65027.28;5093889;28;20107;-69
2023/07/21 03:37:58;;;;;;;4.13;2.50;;;;;;;-143.49;100.00;65027.28;5093581;28;20024;-69
2023/07/21 03:40:24;;;;;;;5.63;2.50;;;;;;;-143.49;100.00;65027.28;5093597;28;20047;-69
2023/07/21 03:42:49;;;;;;;5.07;2.60;;;;;;;-143.49;100.00;65027.28;5093862;28;20032;-69
2023/07/21 03:45:14;;;;;;;3.90;2.17;;;;;;;-143.49;100.00;65027.28;5093744;28;20039;-69
2023/07/21 03:47:40;;;;;;;3.63;2.15;;;;;;;-143.49;100.00;65027.28;5075559;28;20027;-69
2023/07/21 03:50:08;;;;;;;5.13;2.50;;;;;;;-143.49;100.00;65027.28;5075404;28;20382;-70
2023/07/21 03:52:33;;;;;;;2.90;2.25;;;;;;;-143.49;100.00;65027.28;5093689;28;20053;-70
2023/07/21 03:54:59;;;;;;;4.40;2.20;;;;;;;-143.49;100.00;65027.28;5093660;28;20106;-70
2023/07/21 03:57:24;;;;;;;4.97;2.60;;;;;;;-143.49;100.00;65027.28;5093565;28;20052;-69
2023/07/21 03:59:50;;;;;;;3.85;2.60;;;;;;;-143.49;100.00;65027.28;5093672;28;20028;-69
2023/07/21 04:02:16;;;;;;;4.25;2.80;;;;;;;-143.49;100.00;65027.28;5093497;28;20024;-69
2023/07/21 04:04:42;;;;;;;3.20;2.45;;;;;;;-143.49;100.00;65027.28;5093331;28;20024;-69
2023/07/21 04:07:08;;;;;;;5.57;2.88;;;;;;;-143.49;100.00;65027.28;5093505;28;20479;-70
2023/07/21 04:09:34;;;;;;;3.10;2.60;;;;;;;-143.49;100.00;65027.28;5093370;28;20047;-69
2023/07/21 04:12:00;;;;;;;3.78;2.83;;;;;;;-143.49;100.00;65027.28;5093601;28;20036;-70
2023/07/21 04:14:25;;;;;;;3.55;2.83;;;;;;;-143.49;100.00;65027.28;5093454;28;20031;-70
2023/07/21 04:16:51;;;;;;;5.65;3.28;;;;;;;-143.49;100.00;65027.28;5074927;28;20062;-69
2023/07/21 04:19:17;;;;;;;4.45;3.00;;;;;;;-143.49;100.00;65027.28;5093159;28;20028;-70
2023/07/21 04:21:43;;;;;;;4.00;2.65;;;;;;;-143.49;100.00;65027.28;5075105;28;20020;-70
2023/07/21 04:24:10;;;;;;;4.10;2.75;;;;;;;-143.49;100.00;65027.28;5093583;28;20024;-69
2023/07/21 04:26:36;;;;;;;5.43;3.10;;;;;;;-143.49;100.00;65027.28;5093323;28;20028;-70
2023/07/21 04:29:01;;;;;;;4.45;2.92;;;;;;;-143.49;100.00;65027.28;5093313;28;20024;-70
2023/07/21 04:31:28;;;;;;;5.13;3.40;;;;;;;-143.49;100.00;65027.28;5078885;28;20114;-70
2023/07/21 04:33:55;;;;;;;4.85;2.80;;;;;;;-143.49;100.00;65027.28;5097178;28;20028;-70
2023/07/21 04:36:21;;;;;;;5.90;2.95;;;;;;;-143.49;100.00;65027.28;5096826;28;20157;-70
2023/07/21 04:38:47;;;;;;;6.03;3.50;;;;;;;-143.49;100.00;65027.28;5096862;28;20111;-70
2023/07/21 04:41:13;;;;;;;5.10;3.28;;;;;;;-143.49;100.00;65027.28;5096773;28;20459;-70
2023/07/21 04:43:38;;;;;;;3.88;2.80;;;;;;;-143.49;100.00;65027.28;5096631;28;20026;-69
2023/07/21 04:46:03;;;;;;;4.57;2.83;;;;;;;-143.49;100.00;65027.28;5096964;28;20367;-69
2023/07/21 04:48:29;;;;;;;5.70;2.83;;;;;;;-143.49;100.00;65027.28;5096776;28;20383;-69
2023/07/21 04:50:54;;;;;;;3.20;2.70;;;;;;;-143.49;100.00;65027.28;5078485;28;20035;-70
2023/07/21 04:53:19;;;;;;;5.60;3.00;;;;;;;-143.49;100.00;65027.28;5078788;28;20035;-70
2023/07/21 04:55:45;;;;;;;4.45;2.50;;;;;;;-143.49;100.00;65027.28;5096499;28;20098;-69
2023/07/21 04:58:10;;;;;;;5.63;2.80;;;;;;;-143.49;100.00;65027.28;5096495;28;20528;-69
2023/07/21 05:00:36;;;;;;;3.78;2.90;;;;;;;-143.49;100.00;65027.28;5078331;28;20032;-69
2023/07/21 05:03:01;;;;;;;4.93;3.08;;;;;;;-143.49;100.00;65027.28;5078152;28;20543;-69
2023/07/21 05:05:27;;;;;;;4.82;3.10;;;;;;;-143.49;100.00;65027.28;5096463;28;20016;-69
2023/07/21 05:07:53;;;;;;;4.65;3.08;;;;;;;-143.49;100.00;65027.28;5096246;28;20040;-70
2023/07/21 05:10:19;;;;;;;4.30;2.80;;;;;;;-143.49;100.00;65027.28;5096290;28;20055;-69
2023/07/21 05:12:45;;;;;;;6.05;3.30;;;;;;;-143.49;100.00;65027.28;5096311;28;20451;-69
2023/07/21 05:15:10;;;;;;;7.55;3.00;;;;;;;-143.49;100.00;65027.28;5096352;28;20031;-70
2023/07/21 05:17:36;;;;;;;4.68;3.10;;;;;;;-143.49;100.00;65027.28;5095834;28;20024;-70
2023/07/21 05:20:04;;;;;;;4.35;2.40;;;;;;;-143.49;100.00;65027.28;5095885;28;20097;-70
2023/07/21 05:22:29;;;;;;;3.97;2.70;;;;;;;-143.49;100.00;65027.28;5077647;28;20094;-70
2023/07/21 05:24:55;;;;;;;4.07;2.40;;;;;;;-143.49;100.00;65027.28;5095900;28;20024;-68
2023/07/21 05:27:22;;;;;;;3.75;2.55;;;;;;;-143.49;100.00;65027.28;5095899;28;20051;-70
2023/07/21 05:29:47;;;;;;;4.78;2.90;;;;;;;-143.49;100.00;65027.28;5095948;28;20467;-69
2023/07/21 05:32:14;;;;;;;4.15;2.47;;;;;;;-143.49;100.00;65027.28;5095879;28;20027;-70
2023/07/21 05:34:39;;;;;;;2.78;2.10;;;;;;;-143.49;100.00;65027.28;5077629;28;20063;-70
2023/07/21 05:37:05;;;;;;;5.18;2.10;;;;;;;-143.49;100.00;65027.28;5095599;28;20047;-69
2023/07/21 05:39:31;;;;;;;4.45;2.00;;;;;;;-143.49;100.00;65027.28;5095861;28;20047;-69
2023/07/21 05:41:57;;;;;;;2.28;1.70;;;;;;;-143.49;100.00;65027.28;5095328;28;20498;-69
2023/07/21 05:44:23;;;;;;;2.42;1.40;;;;;;;-143.49;100.00;65027.28;5095608;28;20024;-69
2023/07/21 05:46:48;;;;;;;2.38;1.52;;;;;;;-143.49;100.00;65027.28;5095240;28;20076;-70
2023/07/21 05:49:15;;;;;;;7.88;1.90;;;;;;;-143.49;100.00;65027.28;5095457;28;20348;-69
2023/07/21 05:51:41;;;;;;;5.13;1.73;;;;;;;-143.49;100.00;65027.28;5095469;28;20020;-69
2023/07/21 05:54:07;;;;;;;2.67;1.90;;;;;;;-143.49;100.00;65027.28;5095365;28;20051;-70
2023/07/21 05:56:32;;;;;;;3.00;1.77;;;;;;;-143.49;100.00;65027.28;5095295;28;20016;-69
2023/07/21 05:58:58;;;;;;;4.68;2.08;;;;;;;-143.49;100.00;65027.28;5095155;28;20115;-68
2023/07/21 06:01:24;;;;;;;5.57;2.10;;;;;;;-143.49;100.00;65027.28;5077284;28;20031;-70
2023/07/21 06:03:49;;;;;;;3.63;2.00;;;;;;;-143.49;100.00;65027.28;5077096;28;20024;-69
2023/07/21 06:06:14;;;;;;;3.03;2.08;;;;;;;-143.49;100.00;65027.28;5077131;28;20077;-69
2023/07/21 06:08:40;;;;;;;3.78;2.28;;;;;;;-143.49;100.00;65027.28;5079117;28;20040;-69
2023/07/21 06:11:06;;;;;;;3.35;2.20;;;;;;;-143.49;100.00;65027.28;5081363;28;20043;-70
2023/07/21 06:13:31;;;;;;;3.65;2.60;;;;;;;-143.49;100.00;65027.28;5099770;28;20092;-70
2023/07/21 06:15:57;;;;;;;5.78;2.60;;;;;;;-143.49;100.00;65027.28;5101437;28;20067;-70
2023/07/21 06:18:22;;;;;;;3.80;2.90;;;;;;;-143.49;100.00;65027.28;5100427;28;20032;-70
2023/07/21 06:20:52;;;;;;;4.18;2.75;;;;;;;-143.49;100.00;65027.28;5100942;28;20028;-69
2023/07/21 06:23:17;;;;;;;5.72;2.78;;;;;;;-143.49;100.00;65027.28;5093743;28;20019;-70
2023/07/21 06:25:44;;;;;;;7.15;3.08;;;;;;;-143.49;100.00;65027.28;5075623;28;20150;-70
2023/07/21 06:28:10;;;;;;;6.68;2.88;;;;;;;-143.49;100.00;65027.28;5093561;28;20019;-70
2023/07/21 06:30:35;;;;;;;5.45;2.65;;;;;;;-143.49;100.00;65027.28;5093640;28;20043;-70
2023/07/21 06:33:05;;;;;;;6.50;2.90;;;;;;;-143.49;100.00;65027.28;5094417;28;20122;-69
2023/07/21 06:35:31;;;;;;;3.88;2.42;;;;;;;-143.49;100.00;65027.28;5094001;28;20028;-69
2023/07/21 06:37:57;;;;;;;6.68;3.00;;;;;;;-143.49;100.00;65027.28;5093632;28;20027;-69
2023/07/21 06:40:23;;;;;;;4.53;2.78;;;;;;;-143.49;100.00;65027.28;5076052;28;20543;-69
2023/07/21 06:42:49;;;;;;;6.63;2.35;;;;;;;-143.49;100.00;65027.28;5094172;28;20087;-69
2023/07/21 06:45:15;;;;;;;3.85;2.38;;;;;;;-143.49;100.00;65027.28;5094393;28;20059;-71
2023/07/21 06:47:40;;;;;;;3.53;1.90;;;;;;;-143.49;100.00;65027.28;5094597;28;20027;-70
2023/07/21 06:50:05;;;;;;;2.85;1.70;;;;;;;-143.49;100.00;65027.28;5076844;28;20024;-70
2023/07/21 06:52:31;;;;;;;2.80;1.70;;;;;;;-143.49;100.00;65027.28;5093899;28;20107;-70
2023/07/21 06:54:58;;;;;;;4.95;1.70;;;;;;;-143.49;100.00;65027.28;5094709;28;20149;-70
2023/07/21 06:57:24;;;;;;;5.93;1.90;;;;;;;-143.49;100.00;65027.28;5094388;28;20035;-70
2023/07/21 06:59:49;;;;;;;4.70;1.70;;;;;;;-143.49;100.00;65027.28;5094489;28;20020;-69
2023/07/21 07:02:15;;;;;;;2.42;1.65;;;;;;;-143.49;100.00;65027.28;5076127;28;20345;-71
2023/07/21 07:04:40;;;;;;;2.67;1.75;;;;;;;-143.49;100.00;65027.28;5093974;28;20020;-71
2023/07/21 07:07:06;;;;;;;6.05;2.00;;;;;;;-143.49;100.00;65027.28;5075996;28;20435;-71
2023/07/21 07:09:31;;;;;;;3.83;1.83;;;;;;;-143.49;100.00;65027.28;5094339;28;20048;-71
2023/07/21 07:11:57;;;;;;;4.25;1.70;;;;;;;-143.49;100.00;65027.28;5076699;28;20051;-72
2023/07/21 07:14:22;;;;;;;2.83;2.00;;;;;;;-143.49;100.00;65027.28;5097209;28;20024;-69
2023/07/21 07:16:47;;;;;;;3.38;1.83;;;;;;;-143.49;100.00;65027.28;5101431;28;20083;-70
2023/07/21 07:19:13;;;;;;;3.45;1.65;;;;;;;-143.49;100.00;65027.28;5094938;28;20016;-71
2023/07/21 07:21:38;;;;;;;5.03;2.00;;;;;;;-143.49;100.00;65027.28;5076170;28;20383;-71
2023/07/21 07:24:04;;;;;;;5.28;1.95;;;;;;;-143.49;100.00;65027.28;5094127;28;20174;-71
2023/07/21 07:26:29;;;;;;;3.90;1.85;;;;;;;-143.49;100.00;65027.28;5093969;28;20056;-71
2023/07/21 07:28:54;;;;;;;3.78;2.03;;;;;;;-143.49;100.00;65027.28;5093823;28;20491;-70
2023/07/21 07:31:20;;;;;;;6.65;2.50;;;;;;;-143.49;100.00;65027.28;5093762;28;20024;-71
2023/07/21 07:33:45;;;;;;;4.35;2.30;;;;;;;-143.49;100.00;65027.28;5093795;28;20378;-70
2023/07/21 07:36:11;;;;;;;7.35;2.95;;;;;;;-143.49;100.00;65027.28;5076125;28;20383;-71
2023/07/21 07:38:38;;;;;;;5.15;2.72;;;;;;;-143.49;100.00;65027.28;5094509;28;20024;-70
2023/07/21 07:41:05;;;;;;;4.55;3.10;;;;;;;-143.49;100.00;65027.28;5094443;28;20134;-70
2023/07/21 07:43:32;;;;;;;4.97;2.92;;;;;;;-143.49;100.00;65027.28;5093866;28;20474;-71
2023/07/21 07:45:58;;;;;;;6.80;2.70;;;;;;;-143.49;100.00;65027.28;5093807;28;20483;-70
2023/07/21 07:48:23;;;;;;;6.20;2.55;;;;;;;-143.49;100.00;65027.28;5093779;28;20024;-70
2023/07/21 07:50:51;;;;;;;3.90;2.63;;;;;;;-143.49;100.00;65027.28;5093938;28;20032;-71
2023/07/21 07:53:17;;;;;;;6.88;2.50;;;;;;;-143.49;100.00;65027.28;5093859;28;20020;-71
2023/07/21 07:55:43;;;;;;;10.43;2.90;;;;;;;-143.49;100.00;65027.28;5093693;28;20026;-69
2023/07/21 07:58:09;;;;;;;7.43;2.88;;;;;;;-143.49;100.00;65027.28;5093722;28;20024;-71
2023/07/21 08:00:37;;;;;;;3.25;2.30;;;;;;;-143.49;100.00;65027.28;5093576;28;20038;-70
2023/07/21 08:03:06;;;;;;;4.50;2.35;;;;;;;-143.49;100.00;65027.28;5093584;28;20073;-70
2023/07/21 08:05:33;;;;;;;10.65;2.47;;;;;;;-143.49;100.00;65027.28;5096595;28;20024;-71
2023/07/21 08:08:00;;;;;;;4.22;2.10;;;;;;;-143.49;100.00;65027.28;5097401;28;20518;-71
2023/07/21 08:10:28;;;;;;;5.50;2.45;;;;;;;-143.49;100.00;65027.28;5079606;28;20027;-71
2023/07/21 08:12:58;;;;;;;3.40;2.20;;;;;;;-143.49;100.00;65027.28;5079432;28;20058;-71
2023/07/21 08:15:25;;;;;;;5.25;1.85;;;;;;;-143.49;100.00;65027.28;5079799;28;20024;-70
2023/07/21 08:17:51;;;;;;;5.25;2.25;;;;;;;-143.49;100.00;65027.28;5078890;28;20030;-69
2023/07/21 08:20:18;;;;;;;3.45;1.90;;;;;;;-143.49;100.00;65027.28;5079189;28;20118;-71
2023/07/21 08:22:45;;;;;;;4.40;2.20;;;;;;;-143.49;100.00;65027.28;5097357;28;20059;-71
2023/07/21 08:25:10;;;;;;;3.65;2.50;;;;;;;-143.49;100.00;65027.28;5079301;28;20028;-71
2023/07/21 08:27:35;;;;;;;7.07;2.22;;;;;;;-143.49;100.00;65027.28;5097295;28;20020;-71
2023/07/21 08:30:01;;;;;;;4.18;2.58;;;;;;;-143.49;100.00;65027.28;5097204;28;20044;-71
2023/07/21 08:32:27;;;;;;;5.38;2.40;;;;;;;-143.49;100.00;65027.28;5097385;28;20111;-70
2023/07/21 08:34:55;;;;;;;3.85;2.70;;;;;;;-143.49;100.00;65027.28;5096914;28;20379;-70
2023/07/21 08:37:20;;;;;;;7.32;2.70;;;;;;;-143.49;100.00;65027.28;5096953;28;20032;-71
2023/07/21 08:39:45;;;;;;;3.75;2.47;;;;;;;-143.49;100.00;65027.28;5097170;28;20110;-70
2023/07/21 08:42:12;;;;;;;2.05;1.05;;;;;;;-143.49;100.00;65027.28;5096883;28;20020;-71
2023/07/21 08:44:39;;;;;;;3.75;1.00;;;;;;;-143.49;100.00;65027.28;5078685;28;20024;-71
2023/07/21 08:47:05;;;;;;;1.58;1.10;;;;;;;-143.49;100.00;65027.28;5096916;28;20035;-71
2023/07/21 08:49:30;;;;;;;1.27;1.08;;;;;;;-143.49;100.00;65027.28;5096830;28;20363;-71
2023/07/21 08:51:56;;;;;;;1.73;1.30;;;;;;;-143.49;100.00;65027.28;5096794;28;20024;-70
2023/07/21 08:54:21;;;;;;;6.82;1.80;;;;;;;-143.49;100.00;65027.28;5096645;28;20032;-72
2023/07/21 08:56:47;;;;;;;13.10;2.13;;;;;;;-143.49;100.00;65027.28;5096837;28;20023;-69
2023/07/21 08:59:12;;;;;;;2.60;1.75;;;;;;;-143.49;100.00;65027.28;5096520;28;20357;-69
2023/07/21 09:01:37;;;;;;;3.65;1.67;;;;;;;-143.49;100.00;65027.28;5078333;28;20028;-69
2023/07/21 09:04:16;;;;;;;30.90;2.75;;;;;;;-143.49;100.00;65027.28;5096477;28;20128;-71
2023/07/21 09:06:41;;;;;;;4.10;1.55;;;;;;;-143.49;100.00;65027.28;5096131;28;20051;-72
2023/07/21 09:09:17;;;;;;;4.15;1.33;;;;;;;-143.49;100.00;65027.28;5078103;28;20479;-71
2023/07/21 09:11:42;;;;;;;13.13;2.33;;;;;;;-143.49;100.00;65027.28;5096537;28;20038;-72
2023/07/21 09:14:07;;;;;;;3.20;1.77;;;;;;;-143.49;100.00;65027.28;5096798;28;20020;-72
2023/07/21 09:16:33;;;;;;;23.05;2.40;;;;;;;-143.49;100.00;65027.28;5096003;28;20031;-71
2023/07/21 09:18:58;;;;;;;7.57;2.08;;;;;;;-143.49;100.00;65027.28;5096016;28;20038;-73
2023/07/21 09:21:24;;;;;;;4.60;2.05;;;;;;;-143.49;100.00;65027.28;5096266;28;20118;-71
2023/07/21 09:23:50;;;;;;;4.95;2.47;;;;;;;-143.49;100.00;65027.28;5096309;28;20028;-71
2023/07/21 09:26:21;;;;;;;3.50;1.90;;;;;;;-143.49;100.00;65027.28;5078148;28;20032;-71
2023/07/21 09:28:47;;;;;;;6.97;1.98;;;;;;;-143.49;100.00;65027.28;5095929;28;20436;-71
2023/07/21 09:31:13;;;;;;;5.30;2.00;;;;;;;-143.49;100.00;65027.28;5095906;28;20031;-70
2023/07/21 09:33:43;;;;;;;3.63;2.00;;;;;;;-143.49;100.00;65027.28;5077883;28;20028;-72
2023/07/21 09:36:09;;;;;;;5.07;2.08;;;;;;;-143.49;100.00;65027.28;5095783;28;20429;-71
2023/07/21 09:38:36;;;;;;;4.32;2.00;;;;;;;-143.49;100.00;65027.28;5095352;28;20378;-71
2023/07/21 09:41:03;;;;;;;4.60;2.20;;;;;;;-143.49;100.00;65027.28;5095287;28;20534;-70
2023/07/21 09:43:30;;;;;;;3.05;2.10;;;;;;;-143.49;100.00;65027.28;5095158;28;20556;-71
2023/07/21 09:45:59;;;;;;;3.08;1.42;;;;;;;-143.49;100.00;65027.28;5077084;28;20089;-71
2023/07/21 09:48:25;;;;;;;2.90;1.50;;;;;;;-143.49;100.00;65027.28;5076858;28;20016;-69
2023/07/21 09:50:52;;;;;;;6.28;2.08;;;;;;;-143.49;100.00;65027.28;5094784;28;20024;-72
2023/07/21 09:53:21;;;;;;;7.10;1.95;;;;;;;-143.49;100.00;65027.28;5094905;28;20472;-71
2023/07/21 09:55:49;;;;;;;3.28;1.70;;;;;;;-143.49;100.00;65027.28;5094926;28;20115;-71
2023/07/21 09:58:16;;;;;;;5.10;1.75;;;;;;;-143.49;100.00;65027.28;5076474;28;20154;-71
2023/07/21 10:00:44;;;;;;;5.85;1.75;;;;;;;-143.49;100.00;65027.28;5094760;28;20035;-71
2023/07/21 10:03:11;;;;;;;7.63;1.98;;;;;;;-143.49;100.00;65027.28;5094811;28;20052;-71
2023/07/21 10:05:40;;;;;;;3.30;1.58;;;;;;;-143.49;100.00;65027.28;5094207;28;20039;-72
2023/07/21 10:08:06;;;;;;;4.32;2.13;;;;;;;-143.49;100.00;65027.28;5094434;28;20048;-71
2023/07/21 10:10:32;;;;;;;4.28;1.92;;;;;;;-143.49;100.00;65027.28;5094588;28;20031;-71
2023/07/21 10:13:04;;;;;;;5.00;1.75;;;;;;;-143.49;100.00;65027.28;5094610;28;20032;-71
2023/07/21 10:15:31;;;;;;;5.30;1.35;;;;;;;-143.49;100.00;65027.28;5076489;28;20028;-71
2023/07/21 10:18:02;;;;;;;4.80;1.35;;;;;;;-143.49;100.00;65027.28;5094413;28;20036;-71
2023/07/21 10:20:46;;;;;;;32.00;3.33;;;;;;;-143.49;100.00;65027.28;5094309;28;20102;-72
2023/07/21 10:23:14;;;;;;;8.20;1.63;;;;;;;-143.49;100.00;65027.28;5076275;28;20089;-72
2023/07/21 10:25:52;;;;;;;5.65;1.60;;;;;;;-143.49;100.00;65027.28;5076429;28;20028;-71
2023/07/21 10:28:30;;;;;;;29.98;2.60;;;;;;;-143.49;100.00;65027.28;5074613;28;20024;-72
2023/07/21 10:31:21;;;;;;;21.20;2.33;;;;;;;-143.49;100.00;65027.28;5075330;28;20027;-70
2023/07/21 10:34:05;;;;;;;2.67;1.40;;;;;;;-143.49;100.00;65027.28;5075385;28;20028;-70
2023/07/21 10:36:56;;;;;;;3.03;1.70;;;;;;;-143.49;100.00;65027.28;5093600;28;20028;-70
2023/07/21 10:39:27;;;;;;;1.65;1.02;;;;;;;-143.49;100.00;65027.28;5075344;28;20058;-70
2023/07/21 10:41:56;;;;;;;5.72;1.27;;;;;;;-143.49;100.00;65027.28;5093905;28;20020;-70
2023/07/21 10:44:23;;;;;;;4.18;1.58;;;;;;;-143.49;100.00;65027.28;5093994;28;20016;-70
2023/07/21 10:46:51;;;;;;;4.63;1.30;;;;;;;-143.49;100.00;65027.28;5094246;28;20102;-71
2023/07/21 10:49:18;;;;;;;3.05;1.25;;;;;;;-143.49;100.00;65027.28;5093960;28;20016;-70
2023/07/21 10:51:46;;;;;;;2.53;1.00;;;;;;;-143.49;100.00;65027.28;5076442;28;20023;-71
2023/07/21 10:54:13;;;;;;;8.02;1.50;;;;;;;-143.49;100.00;65027.28;5077336;28;20420;-70
2023/07/21 10:56:40;;;;;;;4.45;1.50;;;;;;;-143.49;100.00;65027.28;5095360;28;20095;-69
2023/07/21 10:59:06;;;;;;;9.07;1.60;;;;;;;-143.49;100.00;65027.28;5094330;28;20028;-71
2023/07/21 11:01:31;;;;;;;3.80;1.50;;;;;;;-143.49;100.00;65027.28;5094048;28;20166;-69
2023/07/21 11:03:58;;;;;;;5.00;1.20;;;;;;;-143.49;100.00;65027.28;5094286;28;20051;-70
2023/07/21 11:06:24;;;;;;;5.03;1.20;;;;;;;-143.49;100.00;65027.28;5094087;28;20020;-71
2023/07/21 11:08:50;;;;;;;1.92;1.05;;;;;;;-143.49;100.00;65027.28;5075628;28;20050;-72
2023/07/21 11:11:15;;;;;;;7.03;1.15;;;;;;;-143.49;100.00;65027.28;5093893;28;20494;-71